sensor_id;sensor_type;location;lat;lon;timestamp;pressure;altitude;pressure_sealevel;temperature;humidity
16777;BME280;8505;49.456;8.164;2022-07-19T00:02:15;-20508.75;;;19.23;54.98
16777;BME280;8505;49.456;8.164;2022-07-19T00:04:43;-20506.63;;;19.16;55.52
16777;BME280;8505;49.456;8.164;2022-07-19T00:07:11;-20504.97;;;19.10;55.56
16777;BME280;8505;49.456;8.164;2022-07-19T00:09:40;-20502.38;;;19.01;56.08
16777;BME280;8505;49.456;8.164;2022-07-19T00:12:07;-20503.28;;;19.04;55.84
16777;BME280;8505;49.456;8.164;2022-07-19T00:14:37;-20501.63;;;18.99;56.43
16777;BME280;8505;49.456;8.164;2022-07-19T00:17:04;-20502.69;;;19.02;56.03
16777;BME280;8505;49.456;8.164;2022-07-19T00:19:32;-20503.59;;;19.05;55.84
16777;BME280;8505;49.456;8.164;2022-07-19T00:22:00;-20500.72;;;18.96;56.31
16777;BME280;8505;49.456;8.164;2022-07-19T00:24:27;-20498.59;;;18.89;56.97
16777;BME280;8505;49.456;8.164;2022-07-19T00:26:56;-20496.31;;;18.81;57.17
16777;BME280;8505;49.456;8.164;2022-07-19T00:29:24;-20495.09;;;18.77;57.37
16777;BME280;8505;49.456;8.164;2022-07-19T00:31:51;-20491.59;;;18.65;57.97
16777;BME280;8505;49.456;8.164;2022-07-19T00:34:19;-20491.13;;;18.64;58.21
16777;BME280;8505;49.456;8.164;2022-07-19T00:36:47;-20488.09;;;18.54;58.91
16777;BME280;8505;49.456;8.164;2022-07-19T00:39:14;-20487.63;;;18.52;58.85
16777;BME280;8505;49.456;8.164;2022-07-19T00:41:43;-20487.47;;;18.52;59.11
16777;BME280;8505;49.456;8.164;2022-07-19T00:44:12;-20486.56;;;18.49;59.16
16777;BME280;8505;49.456;8.164;2022-07-19T00:46:40;-20486.88;;;18.50;59.40
16777;BME280;8505;49.456;8.164;2022-07-19T00:49:08;-20483.84;;;18.39;59.98
16777;BME280;8505;49.456;8.164;2022-07-19T00:51:38;-20482.31;;;18.34;60.25
16777;BME280;8505;49.456;8.164;2022-07-19T00:54:08;-20482.78;;;18.36;60.24
16777;BME280;8505;49.456;8.164;2022-07-19T00:56:37;-20482.91;;;18.36;60.07
16777;BME280;8505;49.456;8.164;2022-07-19T00:59:05;-20482.31;;;18.34;60.23
16777;BME280;8505;49.456;8.164;2022-07-19T01:01:34;-20479.13;;;18.24;60.77
16777;BME280;8505;49.456;8.164;2022-07-19T01:04:03;-20476.84;;;18.16;61.44
16777;BME280;8505;49.456;8.164;2022-07-19T01:06:31;-20475.31;;;18.11;61.78
16777;BME280;8505;49.456;8.164;2022-07-19T01:08:59;-20474.88;;;18.10;61.80
16777;BME280;8505;49.456;8.164;2022-07-19T01:11:26;-20472.75;;;18.02;62.38
16777;BME280;8505;49.456;8.164;2022-07-19T01:13:54;-20470.16;;;17.94;62.85
16777;BME280;8505;49.456;8.164;2022-07-19T01:16:22;-20469.84;;;17.93;62.91
16777;BME280;8505;49.456;8.164;2022-07-19T01:18:51;-20468.94;;;17.90;62.92
16777;BME280;8505;49.456;8.164;2022-07-19T01:21:21;-20468.34;;;17.88;63.29
16777;BME280;8505;49.456;8.164;2022-07-19T01:23:50;-20466.50;;;17.82;63.58
16777;BME280;8505;49.456;8.164;2022-07-19T01:26:18;-20465.91;;;17.80;63.67
16777;BME280;8505;49.456;8.164;2022-07-19T01:28:46;-20464.84;;;17.76;63.93
16777;BME280;8505;49.456;8.164;2022-07-19T01:31:14;-20462.84;;;17.70;64.29
16777;BME280;8505;49.456;8.164;2022-07-19T01:33:44;-20462.72;;;17.69;64.57
16777;BME280;8505;49.456;8.164;2022-07-19T01:36:13;-20462.25;;;17.68;64.42
16777;BME280;8505;49.456;8.164;2022-07-19T01:38:42;-20461.63;;;17.65;64.68
16777;BME280;8505;49.456;8.164;2022-07-19T01:41:09;-20459.19;;;17.57;65.17
16777;BME280;8505;49.456;8.164;2022-07-19T01:43:37;-20460.72;;;17.62;65.28
16777;BME280;8505;49.456;8.164;2022-07-19T01:46:05;-20457.69;;;17.52;65.57
16777;BME280;8505;49.456;8.164;2022-07-19T01:48:34;-20457.97;;;17.53;65.86
16777;BME280;8505;49.456;8.164;2022-07-19T01:51:02;-20453.56;;;17.39;66.44
16777;BME280;8505;49.456;8.164;2022-07-19T01:53:30;-20451.91;;;17.33;66.99
16777;BME280;8505;49.456;8.164;2022-07-19T01:55:59;-20452.97;;;17.37;66.96
16777;BME280;8505;49.456;8.164;2022-07-19T01:58:26;-20450.69;;;17.29;67.49
16777;BME280;8505;49.456;8.164;2022-07-19T02:00:54;-20449.47;;;17.25;67.71
16777;BME280;8505;49.456;8.164;2022-07-19T02:03:22;-20448.56;;;17.22;68.16
16777;BME280;8505;49.456;8.164;2022-07-19T02:05:49;-20449.16;;;17.24;67.87
16777;BME280;8505;49.456;8.164;2022-07-19T02:08:17;-20446.41;;;17.15;68.42
16777;BME280;8505;49.456;8.164;2022-07-19T02:10:45;-20444.59;;;17.09;68.88
16777;BME280;8505;49.456;8.164;2022-07-19T02:13:14;-20444.59;;;17.09;68.89
16777;BME280;8505;49.456;8.164;2022-07-19T02:15:42;-20442.47;;;17.02;69.37
16777;BME280;8505;49.456;8.164;2022-07-19T02:18:10;-20441.72;;;16.99;69.66
16777;BME280;8505;49.456;8.164;2022-07-19T02:20:38;-20442.91;;;17.03;69.43
16777;BME280;8505;49.456;8.164;2022-07-19T02:23:05;-20440.03;;;16.93;69.99
16777;BME280;8505;49.456;8.164;2022-07-19T02:25:33;-20440.03;;;16.93;70.00
16777;BME280;8505;49.456;8.164;2022-07-19T02:28:01;-20439.88;;;16.93;70.17
16777;BME280;8505;49.456;8.164;2022-07-19T02:30:30;-20438.50;;;16.88;70.28
16777;BME280;8505;49.456;8.164;2022-07-19T02:32:57;-20438.22;;;16.87;70.28
16777;BME280;8505;49.456;8.164;2022-07-19T02:35:25;-20435.31;;;16.78;70.98
16777;BME280;8505;49.456;8.164;2022-07-19T02:37:53;-20433.78;;;16.73;71.43
16777;BME280;8505;49.456;8.164;2022-07-19T02:40:20;-20434.84;;;16.76;71.15
16777;BME280;8505;49.456;8.164;2022-07-19T02:42:48;-20436.22;;;16.81;71.11
16777;BME280;8505;49.456;8.164;2022-07-19T02:45:16;-20434.25;;;16.74;71.44
16777;BME280;8505;49.456;8.164;2022-07-19T02:47:45;-20432.72;;;16.69;71.69
16777;BME280;8505;49.456;8.164;2022-07-19T02:50:13;-20431.22;;;16.64;72.17
16777;BME280;8505;49.456;8.164;2022-07-19T02:52:41;-20430.44;;;16.62;72.49
16777;BME280;8505;49.456;8.164;2022-07-19T02:55:08;-20429.22;;;16.58;72.80
16777;BME280;8505;49.456;8.164;2022-07-19T02:57:36;-20429.97;;;16.60;72.73
16777;BME280;8505;49.456;8.164;2022-07-19T03:00:06;-20428.91;;;16.56;73.04
16777;BME280;8505;49.456;8.164;2022-07-19T03:02:34;-20426.94;;;16.50;72.95
16777;BME280;8505;49.456;8.164;2022-07-19T03:05:04;-20431.22;;;16.64;72.86
16777;BME280;8505;49.456;8.164;2022-07-19T03:07:32;-20429.38;;;16.58;72.98
16777;BME280;8505;49.456;8.164;2022-07-19T03:10:00;-20421.75;;;16.33;74.25
16777;BME280;8505;49.456;8.164;2022-07-19T03:12:27;-20420.53;;;16.29;74.64
16777;BME280;8505;49.456;8.164;2022-07-19T03:14:55;-20420.53;;;16.29;74.71
16777;BME280;8505;49.456;8.164;2022-07-19T03:17:23;-20420.69;;;16.29;74.82
16777;BME280;8505;49.456;8.164;2022-07-19T03:19:50;-20417.50;;;16.18;75.49
16777;BME280;8505;49.456;8.164;2022-07-19T03:22:19;-20416.75;;;16.16;75.59
16777;BME280;8505;49.456;8.164;2022-07-19T03:24:47;-20416.75;;;16.16;76.10
16777;BME280;8505;49.456;8.164;2022-07-19T03:27:15;-20415.38;;;16.11;76.23
16777;BME280;8505;49.456;8.164;2022-07-19T03:29:42;-20414.44;;;16.08;76.54
16777;BME280;8505;49.456;8.164;2022-07-19T03:32:10;-20412.31;;;16.01;77.00
16777;BME280;8505;49.456;8.164;2022-07-19T03:34:38;-20412.47;;;16.02;76.97
16777;BME280;8505;49.456;8.164;2022-07-19T03:37:06;-20413.53;;;16.05;76.58
16777;BME280;8505;49.456;8.164;2022-07-19T03:39:35;-20413.84;;;16.06;76.57
16777;BME280;8505;49.456;8.164;2022-07-19T03:42:02;-20412.31;;;16.01;77.07
16777;BME280;8505;49.456;8.164;2022-07-19T03:44:31;-20411.41;;;15.98;77.24
16777;BME280;8505;49.456;8.164;2022-07-19T03:46:58;-20410.81;;;15.96;77.46
16777;BME280;8505;49.456;8.164;2022-07-19T03:49:26;-20409.13;;;15.91;78.10
16777;BME280;8505;49.456;8.164;2022-07-19T03:51:54;-20409.59;;;15.92;77.88
16777;BME280;8505;49.456;8.164;2022-07-19T03:54:22;-20406.06;;;15.80;78.52
16777;BME280;8505;49.456;8.164;2022-07-19T03:56:51;-20406.53;;;15.82;78.59
16777;BME280;8505;49.456;8.164;2022-07-19T03:59:18;-20408.22;;;15.88;78.65
16777;BME280;8505;49.456;8.164;2022-07-19T04:01:49;-20409.59;;;15.92;78.64
16777;BME280;8505;49.456;8.164;2022-07-19T04:04:17;-20409.59;;;15.92;78.48
16777;BME280;8505;49.456;8.164;2022-07-19T04:06:45;-20410.19;;;15.94;78.57
16777;BME280;8505;49.456;8.164;2022-07-19T04:09:15;-20412.31;;;16.01;77.84
16777;BME280;8505;49.456;8.164;2022-07-19T04:11:43;-20411.88;;;16.00;78.12
16777;BME280;8505;49.456;8.164;2022-07-19T04:14:12;-20408.50;;;15.89;78.90
16777;BME280;8505;49.456;8.164;2022-07-19T04:16:39;-20409.44;;;15.92;78.67
16777;BME280;8505;49.456;8.164;2022-07-19T04:19:07;-20412.31;;;16.01;78.22
16777;BME280;8505;49.456;8.164;2022-07-19T04:21:35;-20414.16;;;16.07;77.84
16777;BME280;8505;49.456;8.164;2022-07-19T04:24:04;-20413.84;;;16.06;77.80
16777;BME280;8505;49.456;8.164;2022-07-19T04:26:36;-20417.50;;;16.18;77.08
16777;BME280;8505;49.456;8.164;2022-07-19T04:29:04;-20417.03;;;16.17;77.09
16777;BME280;8505;49.456;8.164;2022-07-19T04:31:33;-20418.41;;;16.22;77.00
16777;BME280;8505;49.456;8.164;2022-07-19T04:34:01;-20418.72;;;16.23;76.88
16777;BME280;8505;49.456;8.164;2022-07-19T04:36:29;-20423.28;;;16.38;75.76
16777;BME280;8505;49.456;8.164;2022-07-19T04:38:56;-20427.09;;;16.50;75.13
16777;BME280;8505;49.456;8.164;2022-07-19T04:41:24;-20424.03;;;16.40;75.48
16777;BME280;8505;49.456;8.164;2022-07-19T04:43:52;-20425.41;;;16.45;75.39
16777;BME280;8505;49.456;8.164;2022-07-19T04:46:19;-20428.47;;;16.55;74.96
16777;BME280;8505;49.456;8.164;2022-07-19T04:48:49;-20433.34;;;16.71;73.97
16777;BME280;8505;49.456;8.164;2022-07-19T04:51:16;-20436.69;;;16.82;73.59
16777;BME280;8505;49.456;8.164;2022-07-19T04:53:44;-20439.56;;;16.92;72.64
16777;BME280;8505;49.456;8.164;2022-07-19T04:56:12;-20438.22;;;16.87;73.02
16777;BME280;8505;49.456;8.164;2022-07-19T04:58:39;-20438.22;;;16.87;73.27
16777;BME280;8505;49.456;8.164;2022-07-19T05:01:07;-20441.88;;;17.00;72.76
16777;BME280;8505;49.456;8.164;2022-07-19T05:03:35;-20443.69;;;17.06;72.14
16777;BME280;8505;49.456;8.164;2022-07-19T05:06:04;-20446.72;;;17.16;72.16
16777;BME280;8505;49.456;8.164;2022-07-19T05:08:31;-20456.00;;;17.47;70.25
16777;BME280;8505;49.456;8.164;2022-07-19T05:10:59;-20455.56;;;17.45;70.00
16777;BME280;8505;49.456;8.164;2022-07-19T05:13:27;-20459.50;;;17.58;69.43
16777;BME280;8505;49.456;8.164;2022-07-19T05:15:54;-20463.47;;;17.72;69.02
16777;BME280;8505;49.456;8.164;2022-07-19T05:18:22;-20466.19;;;17.81;68.13
16777;BME280;8505;49.456;8.164;2022-07-19T05:20:50;-20474.41;;;18.08;66.92
16777;BME280;8505;49.456;8.164;2022-07-19T05:23:19;-20475.94;;;18.13;67.18
16777;BME280;8505;49.456;8.164;2022-07-19T05:25:50;-20482.63;;;18.35;65.75
16777;BME280;8505;49.456;8.164;2022-07-19T05:28:17;-20490.53;;;18.62;64.69
16777;BME280;8505;49.456;8.164;2022-07-19T05:30:45;-20491.75;;;18.66;64.19
16777;BME280;8505;49.456;8.164;2022-07-19T05:33:13;-20489.91;;;18.60;64.18
16777;BME280;8505;49.456;8.164;2022-07-19T05:35:42;-20497.22;;;18.84;63.41
16777;BME280;8505;49.456;8.164;2022-07-19T05:38:10;-20504.34;;;19.08;62.55
16777;BME280;8505;49.456;8.164;2022-07-19T05:40:39;-20514.84;;;19.43;60.93
16777;BME280;8505;49.456;8.164;2022-07-19T05:43:06;-20521.66;;;19.66;59.69
16777;BME280;8505;49.456;8.164;2022-07-19T05:45:35;-20532.16;;;20.01;58.26
16777;BME280;8505;49.456;8.164;2022-07-19T05:48:04;-20537.44;;;20.18;57.38
16777;BME280;8505;49.456;8.164;2022-07-19T05:50:32;-20543.97;;;20.40;56.37
16777;BME280;8505;49.456;8.164;2022-07-19T05:52:59;-20555.34;;;20.78;54.92
16777;BME280;8505;49.456;8.164;2022-07-19T05:55:27;-20558.25;;;20.88;54.38
16777;BME280;8505;49.456;8.164;2022-07-19T05:57:56;-20563.84;;;21.07;54.51
16777;BME280;8505;49.456;8.164;2022-07-19T06:00:24;-20572.50;;;21.36;53.16
16777;BME280;8505;49.456;8.164;2022-07-19T06:02:51;-20574.00;;;21.41;52.98
16777;BME280;8505;49.456;8.164;2022-07-19T06:05:19;-20582.66;;;21.70;51.94
16777;BME280;8505;49.456;8.164;2022-07-19T06:07:46;-20584.78;;;21.77;51.62
16777;BME280;8505;49.456;8.164;2022-07-19T06:10:14;-20599.94;;;22.27;50.54
16777;BME280;8505;49.456;8.164;2022-07-19T06:12:42;-20612.50;;;22.69;49.02
16777;BME280;8505;49.456;8.164;2022-07-19T06:15:11;-20622.50;;;23.03;47.59
16777;BME280;8505;49.456;8.164;2022-07-19T06:17:39;-20627.19;;;23.19;47.32
16777;BME280;8505;49.456;8.164;2022-07-19T06:20:08;-20642.63;;;23.70;46.54
16777;BME280;8505;49.456;8.164;2022-07-19T06:22:35;-20650.78;;;23.98;45.69
16777;BME280;8505;49.456;8.164;2022-07-19T06:25:04;-20659.72;;;24.28;45.27
16777;BME280;8505;49.456;8.164;2022-07-19T06:27:33;-20672.09;;;24.69;44.18
16777;BME280;8505;49.456;8.164;2022-07-19T06:30:01;-20686.91;;;25.19;42.24
16777;BME280;8505;49.456;8.164;2022-07-19T06:32:30;-20699.00;;;25.59;41.56
16777;BME280;8505;49.456;8.164;2022-07-19T06:34:58;-20712.59;;;26.05;40.32
16777;BME280;8505;49.456;8.164;2022-07-19T06:37:25;-20724.06;;;26.44;39.91
16777;BME280;8505;49.456;8.164;2022-07-19T06:39:53;-20740.06;;;26.97;39.09
16777;BME280;8505;49.456;8.164;2022-07-19T06:42:21;-20749.09;;;27.28;38.14
16777;BME280;8505;49.456;8.164;2022-07-19T06:44:48;-20762.81;;;27.74;38.03
16777;BME280;8505;49.456;8.164;2022-07-19T06:47:16;-20756.34;;;27.52;37.61
16777;BME280;8505;49.456;8.164;2022-07-19T06:49:46;-20753.31;;;27.42;37.75
16777;BME280;8505;49.456;8.164;2022-07-19T06:52:13;-20776.53;;;28.20;37.24
16777;BME280;8505;49.456;8.164;2022-07-19T06:54:41;-20756.03;;;27.51;36.41
16777;BME280;8505;49.456;8.164;2022-07-19T06:57:09;-20793.69;;;28.78;34.87
16777;BME280;8505;49.456;8.164;2022-07-19T06:59:37;-20803.94;;;29.12;33.27
16777;BME280;8505;49.456;8.164;2022-07-19T07:02:05;-20824.69;;;29.82;33.07
16777;BME280;8505;49.456;8.164;2022-07-19T07:04:33;-20832.50;;;30.09;31.32
16777;BME280;8505;49.456;8.164;2022-07-19T07:07:12;-20838.50;;;30.29;30.90
16777;BME280;8505;49.456;8.164;2022-07-19T07:09:40;-20853.84;;;30.81;30.64
16777;BME280;8505;49.456;8.164;2022-07-19T07:12:08;-20852.03;;;30.74;30.26
16777;BME280;8505;49.456;8.164;2022-07-19T07:14:36;-20846.63;;;30.56;30.33
16777;BME280;8505;49.456;8.164;2022-07-19T07:17:04;-20858.78;;;30.97;30.02
16777;BME280;8505;49.456;8.164;2022-07-19T07:19:31;-20882.06;;;31.76;28.58
16777;BME280;8505;49.456;8.164;2022-07-19T07:21:59;-20890.31;;;32.04;28.70
16777;BME280;8505;49.456;8.164;2022-07-19T07:24:29;-20891.81;;;32.09;28.44
16777;BME280;8505;49.456;8.164;2022-07-19T07:26:57;-20882.06;;;31.76;28.43
16777;BME280;8505;49.456;8.164;2022-07-19T07:29:25;-20895.28;;;32.21;28.49
16777;BME280;8505;49.456;8.164;2022-07-19T07:31:53;-20890.16;;;32.03;28.46
16777;BME280;8505;49.456;8.164;2022-07-19T07:34:21;-20874.41;;;31.50;29.88
16777;BME280;8505;49.456;8.164;2022-07-19T07:36:48;-20882.22;;;31.76;29.30
16777;BME280;8505;49.456;8.164;2022-07-19T07:39:16;-20886.13;;;31.90;28.82
16777;BME280;8505;49.456;8.164;2022-07-19T07:41:45;-20896.19;;;32.24;27.82
16777;BME280;8505;49.456;8.164;2022-07-19T07:44:25;-20909.34;;;32.68;27.46
16777;BME280;8505;49.456;8.164;2022-07-19T07:46:54;-20915.34;;;32.88;26.93
16777;BME280;8505;49.456;8.164;2022-07-19T07:49:21;-20904.72;;;32.52;27.53
16777;BME280;8505;49.456;8.164;2022-07-19T07:51:49;-20897.66;;;32.29;27.70
16777;BME280;8505;49.456;8.164;2022-07-19T07:54:17;-20904.88;;;32.53;27.29
16777;BME280;8505;49.456;8.164;2022-07-19T07:56:46;-20917.16;;;32.95;26.83
16777;BME280;8505;49.456;8.164;2022-07-19T07:59:14;-20924.19;;;33.18;26.63
16777;BME280;8505;49.456;8.164;2022-07-19T08:01:41;-20917.47;;;32.96;26.74
16777;BME280;8505;49.456;8.164;2022-07-19T08:04:11;-20924.94;;;33.21;26.77
16777;BME280;8505;49.456;8.164;2022-07-19T08:06:38;-20913.72;;;32.83;26.94
16777;BME280;8505;49.456;8.164;2022-07-19T08:09:06;-20902.16;;;32.44;27.19
16777;BME280;8505;49.456;8.164;2022-07-19T08:11:34;-20915.97;;;32.90;27.18
16777;BME280;8505;49.456;8.164;2022-07-19T08:14:03;-20929.16;;;33.35;26.33
16777;BME280;8505;49.456;8.164;2022-07-19T08:16:31;-20932.00;;;33.45;25.92
16777;BME280;8505;49.456;8.164;2022-07-19T08:18:59;-20935.59;;;33.57;25.62
16777;BME280;8505;49.456;8.164;2022-07-19T08:21:27;-20930.03;;;33.38;26.14
16777;BME280;8505;49.456;8.164;2022-07-19T08:23:54;-20927.66;;;33.30;26.26
16777;BME280;8505;49.456;8.164;2022-07-19T08:26:22;-20941.88;;;33.78;25.72
16777;BME280;8505;49.456;8.164;2022-07-19T08:28:50;-20946.50;;;33.94;25.87
16777;BME280;8505;49.456;8.164;2022-07-19T08:31:19;-20953.69;;;34.18;25.88
16777;BME280;8505;49.456;8.164;2022-07-19T08:33:47;-20955.34;;;34.24;25.61
16777;BME280;8505;49.456;8.164;2022-07-19T08:36:15;-20968.38;;;34.68;24.52
16777;BME280;8505;49.456;8.164;2022-07-19T08:38:42;-20958.78;;;34.36;25.03
16777;BME280;8505;49.456;8.164;2022-07-19T08:41:13;-20968.66;;;34.69;24.84
16777;BME280;8505;49.456;8.164;2022-07-19T08:43:41;-20973.00;;;34.84;24.63
16777;BME280;8505;49.456;8.164;2022-07-19T08:46:09;-20959.38;;;34.38;25.41
16777;BME280;8505;49.456;8.164;2022-07-19T08:48:38;-20945.63;;;33.91;25.91
16777;BME280;8505;49.456;8.164;2022-07-19T08:51:17;-20960.88;;;34.43;25.45
16777;BME280;8505;49.456;8.164;2022-07-19T08:53:45;-20995.88;;;35.61;24.41
16777;BME280;8505;49.456;8.164;2022-07-19T08:56:13;-20973.44;;;34.85;24.55
16777;BME280;8505;49.456;8.164;2022-07-19T08:58:59;-20983.16;;;35.18;24.47
16777;BME280;8505;49.456;8.164;2022-07-19T09:01:27;-20981.50;;;35.13;24.61
16777;BME280;8505;49.456;8.164;2022-07-19T09:04:12;-20971.06;;;34.77;24.89
16777;BME280;8505;49.456;8.164;2022-07-19T09:06:43;-20997.06;;;35.65;24.18
16777;BME280;8505;49.456;8.164;2022-07-19T09:09:18;-20990.19;;;35.42;24.43
16777;BME280;8505;49.456;8.164;2022-07-19T09:11:49;-20987.81;;;35.34;24.16
16777;BME280;8505;49.456;8.164;2022-07-19T09:14:19;-20986.59;;;35.30;23.59
16777;BME280;8505;49.456;8.164;2022-07-19T09:16:59;-20974.66;;;34.89;24.28
16777;BME280;8505;49.456;8.164;2022-07-19T09:19:34;-20987.81;;;35.34;24.22
16777;BME280;8505;49.456;8.164;2022-07-19T09:22:06;-20986.91;;;35.31;24.24
16777;BME280;8505;49.456;8.164;2022-07-19T09:24:36;-21004.22;;;35.90;23.92
16777;BME280;8505;49.456;8.164;2022-07-19T09:27:05;-20985.72;;;35.27;25.03
16777;BME280;8505;49.456;8.164;2022-07-19T09:29:35;-20989.44;;;35.39;24.67
16777;BME280;8505;49.456;8.164;2022-07-19T09:32:10;-20986.59;;;35.30;24.00
16777;BME280;8505;49.456;8.164;2022-07-19T09:34:41;-21005.13;;;35.93;24.11
16777;BME280;8505;49.456;8.164;2022-07-19T09:37:15;-21007.97;;;36.02;23.86
16777;BME280;8505;49.456;8.164;2022-07-19T09:39:44;-21014.38;;;36.24;24.18
16777;BME280;8505;49.456;8.164;2022-07-19T09:42:16;-21006.91;;;35.99;24.18
16777;BME280;8505;49.456;8.164;2022-07-19T09:44:45;-21006.31;;;35.97;24.28
16777;BME280;8505;49.456;8.164;2022-07-19T09:47:13;-21012.28;;;36.17;23.57
16777;BME280;8505;49.456;8.164;2022-07-19T09:49:42;-21013.50;;;36.21;23.17
16777;BME280;8505;49.456;8.164;2022-07-19T09:52:10;-21021.56;;;36.48;23.05
16777;BME280;8505;49.456;8.164;2022-07-19T09:54:38;-21042.16;;;37.18;22.43
16777;BME280;8505;49.456;8.164;2022-07-19T09:57:07;-21044.53;;;37.27;22.52
16777;BME280;8505;49.456;8.164;2022-07-19T09:59:37;-21030.22;;;36.78;22.93
16777;BME280;8505;49.456;8.164;2022-07-19T10:02:16;-21056.31;;;37.67;22.55
16777;BME280;8505;49.456;8.164;2022-07-19T10:04:48;-21042.75;;;37.20;22.51
16777;BME280;8505;49.456;8.164;2022-07-19T10:07:16;-21060.78;;;37.82;22.00
16777;BME280;8505;49.456;8.164;2022-07-19T10:09:45;-21039.16;;;37.08;22.08
16777;BME280;8505;49.456;8.164;2022-07-19T10:12:12;-21035.56;;;36.96;21.87
16777;BME280;8505;49.456;8.164;2022-07-19T10:14:41;-21044.53;;;37.27;21.98
16777;BME280;8505;49.456;8.164;2022-07-19T10:17:17;-21042.59;;;37.20;21.76
16777;BME280;8505;49.456;8.164;2022-07-19T10:19:48;-21053.75;;;37.58;21.77
16777;BME280;8505;49.456;8.164;2022-07-19T10:22:20;-21062.72;;;37.88;21.65
16777;BME280;8505;49.456;8.164;2022-07-19T10:24:51;-21058.53;;;37.74;20.86
16777;BME280;8505;49.456;8.164;2022-07-19T10:27:36;-21063.31;;;37.90;20.46
16777;BME280;8505;49.456;8.164;2022-07-19T10:30:38;-21056.16;;;37.66;21.26
16777;BME280;8505;49.456;8.164;2022-07-19T10:33:29;-21063.00;;;37.89;21.09
16777;BME280;8505;49.456;8.164;2022-07-19T10:35:59;-21067.47;;;38.05;20.72
16777;BME280;8505;49.456;8.164;2022-07-19T10:42:15;-21076.88;;;38.37;19.74
16777;BME280;8505;49.456;8.164;2022-07-19T10:45:10;-21074.03;;;38.27;20.04
16777;BME280;8505;49.456;8.164;2022-07-19T10:48:03;-21091.59;;;38.87;19.17
16777;BME280;8505;49.456;8.164;2022-07-19T10:50:45;-21086.69;;;38.70;18.77
16777;BME280;8505;49.456;8.164;2022-07-19T10:56:24;-21071.81;;;38.19;18.36
16777;BME280;8505;49.456;8.164;2022-07-19T10:58:57;-21061.53;;;37.84;18.75
16777;BME280;8505;49.456;8.164;2022-07-19T11:01:27;-21055.88;;;37.65;18.94
16777;BME280;8505;49.456;8.164;2022-07-19T11:04:22;-21051.97;;;37.52;19.56
16777;BME280;8505;49.456;8.164;2022-07-19T11:06:51;-21075.81;;;38.33;19.16
16777;BME280;8505;49.456;8.164;2022-07-19T11:09:19;-21061.38;;;37.84;18.98
16777;BME280;8505;49.456;8.164;2022-07-19T11:11:51;-21071.19;;;38.17;19.11
16777;BME280;8505;49.456;8.164;2022-07-19T11:14:20;-21083.25;;;38.58;18.86
16777;BME280;8505;49.456;8.164;2022-07-19T11:16:59;-21087.13;;;38.72;19.02
16777;BME280;8505;49.456;8.164;2022-07-19T11:19:27;-21096.38;;;39.03;18.07
16777;BME280;8505;49.456;8.164;2022-07-19T11:22:00;-21094.88;;;38.98;18.18
16777;BME280;8505;49.456;8.164;2022-07-19T11:24:28;-21083.88;;;38.60;17.88
16777;BME280;8505;49.456;8.164;2022-07-19T11:26:55;-21102.75;;;39.25;18.03
16777;BME280;8505;49.456;8.164;2022-07-19T11:29:52;-21080.59;;;38.49;17.76
16777;BME280;8505;49.456;8.164;2022-07-19T11:32:19;-21093.84;;;38.94;17.84
16777;BME280;8505;49.456;8.164;2022-07-19T11:34:53;-21100.97;;;39.19;17.42
16777;BME280;8505;49.456;8.164;2022-07-19T11:37:31;-21109.91;;;39.49;17.44
16777;BME280;8505;49.456;8.164;2022-07-19T11:39:59;-21102.16;;;39.23;17.08
16777;BME280;8505;49.456;8.164;2022-07-19T11:42:33;-21098.88;;;39.12;17.59
16777;BME280;8505;49.456;8.164;2022-07-19T11:45:24;-21088.94;;;38.78;17.30
16777;BME280;8505;49.456;8.164;2022-07-19T11:47:53;-21076.72;;;38.36;17.95
16777;BME280;8505;49.456;8.164;2022-07-19T11:50:24;-21081.19;;;38.51;18.08
16777;BME280;8505;49.456;8.164;2022-07-19T11:52:53;-21088.03;;;38.75;17.68
16777;BME280;8505;49.456;8.164;2022-07-19T11:55:23;-21096.81;;;39.05;17.76
16777;BME280;8505;49.456;8.164;2022-07-19T11:57:52;-21099.63;;;39.14;17.34
16777;BME280;8505;49.456;8.164;2022-07-19T12:00:20;-21101.88;;;39.22;17.28
16777;BME280;8505;49.456;8.164;2022-07-19T12:02:56;-21109.31;;;39.47;17.28
16777;BME280;8505;49.456;8.164;2022-07-19T12:05:25;-21120.47;;;39.85;16.30
16777;BME280;8505;49.456;8.164;2022-07-19T12:07:57;-21131.59;;;40.23;16.12
16777;BME280;8505;49.456;8.164;2022-07-19T12:10:39;-21123.44;;;39.95;16.71
16777;BME280;8505;49.456;8.164;2022-07-19T12:13:08;-21134.56;;;40.33;16.54
16777;BME280;8505;49.456;8.164;2022-07-19T12:15:45;-21118.53;;;39.79;16.45
16777;BME280;8505;49.456;8.164;2022-07-19T12:18:16;-21121.94;;;39.90;16.38
16777;BME280;8505;49.456;8.164;2022-07-19T12:20:46;-21145.41;;;40.70;16.38
16777;BME280;8505;49.456;8.164;2022-07-19T12:23:33;-21152.25;;;40.94;16.01
16777;BME280;8505;49.456;8.164;2022-07-19T12:26:03;-21123.44;;;39.95;16.35
16777;BME280;8505;49.456;8.164;2022-07-19T12:28:31;-21111.25;;;39.54;16.44
16777;BME280;8505;49.456;8.164;2022-07-19T12:31:02;-21130.13;;;40.18;16.19
16777;BME280;8505;49.456;8.164;2022-07-19T12:33:32;-21134.56;;;40.33;16.09
16777;BME280;8505;49.456;8.164;2022-07-19T12:36:00;-21119.56;;;39.82;16.52
16777;BME280;8505;49.456;8.164;2022-07-19T12:38:30;-21114.97;;;39.66;16.80
16777;BME280;8505;49.456;8.164;2022-07-19T12:41:06;-21115.69;;;39.69;16.58
16777;BME280;8505;49.456;8.164;2022-07-19T12:43:35;-21123.44;;;39.95;16.40
16777;BME280;8505;49.456;8.164;2022-07-19T12:46:02;-21129.22;;;40.15;16.12
16777;BME280;8505;49.456;8.164;2022-07-19T12:48:31;-21139.47;;;40.50;15.25
16777;BME280;8505;49.456;8.164;2022-07-19T12:50:59;-21151.22;;;40.90;15.54
16777;BME280;8505;49.456;8.164;2022-07-19T12:53:27;-21142.59;;;40.61;16.19
16777;BME280;8505;49.456;8.164;2022-07-19T12:55:54;-21137.25;;;40.42;15.91
16777;BME280;8505;49.456;8.164;2022-07-19T12:58:23;-21125.66;;;40.03;15.92
16777;BME280;8505;49.456;8.164;2022-07-19T13:01:08;-21137.69;;;40.44;15.78
16777;BME280;8505;49.456;8.164;2022-07-19T13:03:40;-21120.16;;;39.84;16.00
16777;BME280;8505;49.456;8.164;2022-07-19T13:06:08;-21109.91;;;39.49;16.72
16777;BME280;8505;49.456;8.164;2022-07-19T13:08:35;-21126.84;;;40.07;16.19
16777;BME280;8505;49.456;8.164;2022-07-19T13:11:03;-21143.03;;;40.62;15.78
16777;BME280;8505;49.456;8.164;2022-07-19T13:13:31;-21143.03;;;40.62;15.54
16777;BME280;8505;49.456;8.164;2022-07-19T13:16:01;-21146.00;;;40.72;15.66
16777;BME280;8505;49.456;8.164;2022-07-19T13:18:29;-21137.09;;;40.42;15.67
16777;BME280;8505;49.456;8.164;2022-07-19T13:20:58;-21137.84;;;40.44;15.81